Terminal Aerodrome Forecast
Issued by NWS

Home | Current Version | Previous Version | Text Only | Print | Product List | Glossary On
Versions: 1 2 3 4 5 6 7 8 9 10 11 12 13 14 15
000
FTUS42 KTAE 040531
TAFVLD
TAF
KVLD 040531Z 0406/0506 00000KT P6SM SCT250
      TEMPO 0410/0413 3SM BR SCT003
     FM041500 VRB05KT P6SM SCT050 BKN250
     FM041900 30005KT P6SM VCTS SCT050CB BKN100=

USA.gov is the U.S. government's official web portal to all federal, state and local government web resources and services.